createdAt,value
2017-07-05T00:00:43.880Z,49.8
2017-07-05T00:01:45.517Z,49.9
2017-07-05T00:02:47.149Z,49.8
2017-07-05T00:03:48.797Z,49.7
2017-07-05T00:04:50.433Z,50.0
2017-07-05T00:05:52.062Z,49.7
2017-07-05T00:06:53.690Z,49.7
2017-07-05T00:07:55.326Z,49.7
2017-07-05T00:08:56.971Z,49.7
2017-07-05T00:09:58.613Z,49.4
2017-07-05T00:11:00.250Z,49.3
2017-07-05T00:12:01.906Z,49.4
2017-07-05T00:13:03.546Z,49.8
2017-07-05T00:14:05.209Z,49.9
2017-07-05T00:15:06.857Z,49.7
2017-07-05T00:16:08.494Z,49.8
2017-07-05T00:17:10.153Z,49.8
2017-07-05T00:18:11.783Z,49.6
2017-07-05T00:19:13.461Z,50.1
2017-07-05T00:20:15.090Z,50.5
2017-07-05T00:21:16.794Z,50.3
2017-07-05T00:22:18.660Z,50.1
2017-07-05T00:23:20.553Z,49.9
2017-07-05T00:24:22.181Z,50.1
2017-07-05T00:25:23.820Z,50.2
2017-07-05T00:26:25.529Z,50.6
2017-07-05T00:27:27.193Z,50.9
2017-07-05T00:28:28.824Z,51.8
2017-07-05T00:29:30.451Z,52.5
2017-07-05T00:30:32.191Z,52.3
2017-07-05T00:31:33.842Z,52.5
2017-07-05T00:32:35.501Z,51.9
2017-07-05T00:33:37.129Z,51.6
2017-07-05T00:34:38.756Z,52.1
2017-07-05T00:35:40.786Z,52.0
2017-07-05T00:36:42.513Z,52.4
2017-07-05T00:37:44.133Z,52.4
2017-07-05T00:38:45.776Z,52.2
2017-07-05T00:39:47.403Z,52.5
2017-07-05T00:40:49.092Z,52.1
2017-07-05T00:41:50.727Z,52.3
2017-07-05T00:42:52.357Z,52.1
2017-07-05T00:43:53.990Z,52.1
2017-07-05T00:44:56.012Z,52.4
2017-07-05T00:45:57.621Z,52.4
2017-07-05T00:46:59.295Z,52.9
2017-07-05T00:48:00.929Z,53.2
2017-07-05T00:49:02.633Z,53.3
2017-07-05T00:50:04.262Z,53.3
2017-07-05T00:51:05.932Z,53.1
2017-07-05T00:52:07.569Z,53.1
2017-07-05T00:53:09.205Z,53.3
2017-07-05T00:54:10.850Z,53.2
2017-07-05T00:55:12.829Z,53.3
2017-07-05T00:56:14.510Z,53.4
2017-07-05T00:57:16.136Z,53.7
2017-07-05T00:58:17.770Z,54.0
2017-07-05T00:59:19.406Z,53.9
2017-07-05T01:00:21.165Z,53.9
2017-07-05T01:01:22.809Z,53.9
2017-07-05T01:02:24.550Z,54.0
2017-07-05T01:03:26.188Z,54.6
2017-07-05T01:04:27.870Z,54.2
2017-07-05T01:05:29.503Z,54.5
2017-07-05T01:06:31.141Z,54.8
2017-07-05T01:07:32.775Z,55.4
2017-07-05T01:08:34.423Z,55.3
2017-07-05T01:09:36.045Z,55.6
2017-07-05T01:10:37.680Z,55.4
2017-07-05T01:11:39.305Z,55.6
2017-07-05T01:12:40.955Z,55.4
2017-07-05T01:13:42.592Z,55.8
2017-07-05T01:14:44.223Z,56.0
2017-07-05T01:15:45.861Z,56.0
2017-07-05T01:16:47.494Z,56.0
2017-07-05T01:17:49.133Z,56.1
2017-07-05T01:18:50.773Z,56.6
2017-07-05T01:19:52.397Z,56.5
2017-07-05T01:20:54.033Z,56.5
2017-07-05T01:21:55.998Z,56.8
2017-07-05T01:22:57.677Z,56.2
2017-07-05T01:24:00.096Z,56.8
2017-07-05T01:25:01.733Z,57.4
2017-07-05T01:26:03.360Z,57.8
2017-07-05T01:27:04.989Z,57.8
2017-07-05T01:28:06.655Z,57.5
2017-07-05T01:29:08.297Z,57.3
2017-07-05T01:30:10.330Z,57.4
2017-07-05T01:31:11.974Z,57.3
2017-07-05T01:32:13.614Z,57.1
2017-07-05T01:33:15.251Z,57.2
2017-07-05T01:34:16.883Z,57.2
2017-07-05T01:35:18.538Z,57.4
2017-07-05T01:36:20.385Z,57.8
2017-07-05T01:37:21.995Z,57.7
2017-07-05T01:38:23.633Z,57.5
2017-07-05T01:39:25.279Z,57.1
2017-07-05T01:40:26.912Z,57.3
2017-07-05T01:41:28.552Z,57.3
2017-07-05T01:42:30.198Z,57.2
2017-07-05T01:43:31.844Z,57.3
2017-07-05T01:44:33.479Z,57.9
2017-07-05T01:45:35.178Z,57.6
2017-07-05T01:46:36.811Z,57.3
2017-07-05T01:47:38.471Z,57.2
2017-07-05T01:48:40.133Z,57.2
2017-07-05T01:49:41.770Z,57.2
2017-07-05T01:50:43.408Z,57.2
2017-07-05T01:51:45.064Z,57.5
2017-07-05T01:52:46.688Z,57.6
2017-07-05T01:53:48.320Z,57.1
2017-07-05T01:54:49.947Z,57.9
2017-07-05T01:55:51.587Z,58.3
2017-07-05T01:56:53.212Z,58.6
2017-07-05T01:57:54.845Z,58.4
2017-07-05T01:58:56.522Z,58.1
2017-07-05T01:59:58.129Z,58.2
2017-07-05T02:00:59.784Z,57.9
2017-07-05T02:02:01.422Z,57.8
2017-07-05T02:03:03.056Z,58.3
2017-07-05T02:04:04.700Z,58.3
2017-07-05T02:05:06.335Z,58.0
2017-07-05T02:06:07.982Z,58.0
2017-07-05T02:07:09.617Z,58.8
2017-07-05T02:08:11.256Z,58.7
2017-07-05T02:09:12.879Z,58.7
2017-07-05T02:10:14.508Z,59.3
2017-07-05T02:11:16.155Z,59.0
2017-07-05T02:12:17.813Z,59.1
2017-07-05T02:13:19.461Z,58.9
2017-07-05T02:14:21.113Z,58.9
2017-07-05T02:15:22.802Z,59.2
2017-07-05T02:16:24.436Z,59.3
2017-07-05T02:17:26.054Z,59.3
2017-07-05T02:18:27.689Z,59.7
2017-07-05T02:19:29.319Z,59.1
2017-07-05T02:20:30.940Z,59.4
2017-07-05T02:21:32.574Z,59.6
2017-07-05T02:22:34.209Z,59.6
2017-07-05T02:23:35.842Z,59.8
2017-07-05T02:24:37.471Z,59.5
2017-07-05T02:25:39.155Z,59.9
2017-07-05T02:26:40.845Z,59.6
2017-07-05T02:27:42.467Z,60.0
2017-07-05T02:28:44.093Z,60.4
2017-07-05T02:29:45.748Z,60.1
2017-07-05T02:30:47.377Z,59.8
2017-07-05T02:31:49.049Z,60.0
2017-07-05T02:32:50.716Z,60.3
2017-07-05T02:33:52.361Z,60.2
2017-07-05T02:34:54.001Z,60.3
2017-07-05T02:35:55.633Z,60.6
2017-07-05T02:36:57.254Z,60.6
2017-07-05T02:37:58.893Z,60.8
2017-07-05T02:39:00.525Z,60.6
2017-07-05T02:40:02.155Z,60.7
2017-07-05T02:41:03.812Z,60.5
2017-07-05T02:42:05.476Z,61.0
2017-07-05T02:43:07.130Z,60.9
2017-07-05T02:44:08.774Z,60.7
2017-07-05T02:45:10.410Z,60.9
2017-07-05T02:46:12.058Z,60.8
2017-07-05T02:47:13.719Z,61.5
2017-07-05T02:48:15.374Z,62.0
2017-07-05T02:49:17.035Z,61.7
2017-07-05T02:50:18.660Z,61.9
2017-07-05T02:51:20.405Z,61.9
2017-07-05T02:52:22.045Z,62.0
2017-07-05T02:53:23.677Z,61.6
2017-07-05T02:54:25.355Z,61.7
2017-07-05T02:55:26.998Z,61.7
2017-07-05T02:56:28.638Z,61.8
2017-07-05T02:57:30.258Z,62.4
2017-07-05T02:58:31.898Z,62.4
2017-07-05T02:59:33.531Z,62.1
2017-07-05T03:00:35.226Z,62.3
2017-07-05T03:01:36.869Z,62.1
2017-07-05T03:02:38.563Z,62.5
2017-07-05T03:03:40.211Z,62.0
2017-07-05T03:04:41.846Z,62.3
2017-07-05T03:05:43.517Z,62.1
2017-07-05T03:06:45.125Z,62.1
2017-07-05T03:07:46.781Z,62.1
2017-07-05T03:08:48.416Z,62.5
2017-07-05T03:09:50.052Z,62.6
2017-07-05T03:10:51.706Z,62.0
2017-07-05T03:11:53.344Z,62.8
2017-07-05T03:12:54.999Z,62.9
2017-07-05T03:13:56.637Z,62.7
2017-07-05T03:14:58.281Z,62.7
2017-07-05T03:16:00.021Z,62.8
2017-07-05T03:17:01.687Z,62.8
2017-07-05T03:18:03.340Z,62.7
2017-07-05T03:19:05.029Z,62.7
2017-07-05T03:20:06.678Z,63.3
2017-07-05T03:21:08.328Z,63.3
2017-07-05T03:22:10.025Z,63.6
2017-07-05T03:23:11.612Z,63.9
2017-07-05T03:24:13.253Z,63.5
2017-07-05T03:25:14.919Z,63.4
2017-07-05T03:26:16.548Z,63.3
2017-07-05T03:27:18.185Z,63.8
2017-07-05T03:28:19.888Z,64.0
2017-07-05T03:29:21.483Z,63.4
2017-07-05T03:30:23.148Z,63.3
2017-07-05T03:31:24.785Z,63.5
2017-07-05T03:32:26.431Z,60.9
2017-07-05T03:33:28.062Z,63.3
2017-07-05T03:34:29.727Z,63.4
2017-07-05T03:35:31.368Z,63.3
2017-07-05T03:36:33.040Z,63.4
2017-07-05T03:37:34.710Z,63.3
2017-07-05T03:38:36.345Z,63.4
2017-07-05T03:39:37.979Z,63.4
2017-07-05T03:40:39.623Z,63.4
2017-07-05T03:41:41.294Z,63.4
2017-07-05T03:42:42.941Z,63.6
2017-07-05T03:43:44.608Z,63.8
2017-07-05T03:44:46.254Z,63.7
2017-07-05T03:45:47.896Z,63.4
2017-07-05T03:46:49.521Z,63.7
2017-07-05T03:47:51.178Z,63.5
2017-07-05T03:48:52.837Z,63.8
2017-07-05T03:49:54.469Z,64.2
2017-07-05T03:50:56.115Z,64.7
2017-07-05T03:51:57.755Z,63.8
2017-07-05T03:52:59.391Z,63.8
2017-07-05T03:54:01.018Z,63.5
2017-07-05T03:55:02.662Z,63.3
2017-07-05T03:56:04.289Z,63.7
2017-07-05T03:57:05.920Z,64.2
2017-07-05T03:58:07.559Z,64.2
2017-07-05T03:59:09.204Z,63.8
2017-07-05T04:00:10.873Z,63.8
2017-07-05T04:01:12.514Z,64.2
2017-07-05T04:02:14.173Z,64.2
2017-07-05T04:03:15.850Z,64.0
2017-07-05T04:04:17.517Z,64.2
2017-07-05T04:05:19.208Z,64.4
2017-07-05T04:06:20.916Z,64.9
2017-07-05T04:07:22.569Z,64.5
2017-07-05T04:08:24.235Z,64.8
2017-07-05T04:09:25.869Z,64.5
2017-07-05T04:10:27.519Z,64.8
2017-07-05T04:11:29.183Z,64.8
2017-07-05T04:12:30.813Z,64.9
2017-07-05T04:13:32.465Z,64.7
2017-07-05T04:14:34.118Z,64.7
2017-07-05T04:15:35.804Z,65.3
2017-07-05T04:16:37.529Z,65.0
2017-07-05T04:17:39.213Z,65.6
2017-07-05T04:18:40.846Z,65.6
2017-07-05T04:19:42.488Z,65.4
2017-07-05T04:20:44.163Z,65.3
2017-07-05T04:21:45.835Z,65.6
2017-07-05T04:22:47.465Z,65.4
2017-07-05T04:23:49.097Z,65.3
2017-07-05T04:24:50.738Z,65.0
2017-07-05T04:25:52.388Z,65.3
2017-07-05T04:26:54.044Z,65.4
2017-07-05T04:27:55.691Z,65.2
2017-07-05T04:28:57.338Z,65.4
2017-07-05T04:29:59.002Z,65.2
2017-07-05T04:31:00.644Z,65.3
2017-07-05T04:32:02.294Z,65.3
2017-07-05T04:33:03.943Z,65.3
2017-07-05T04:34:05.594Z,65.6
2017-07-05T04:35:07.230Z,66.1
2017-07-05T04:36:08.872Z,66.1
2017-07-05T04:37:10.499Z,66.5
2017-07-05T04:38:12.129Z,66.5
2017-07-05T04:39:13.765Z,66.4
2017-07-05T04:40:15.394Z,66.4
2017-07-05T04:41:17.040Z,66.8
2017-07-05T04:42:18.676Z,66.9
2017-07-05T04:43:20.324Z,67.2
2017-07-05T04:44:21.953Z,67.8
2017-07-05T04:45:23.605Z,68.3
2017-07-05T04:46:25.247Z,68.0
2017-07-05T04:47:26.912Z,67.6
2017-07-05T04:48:28.543Z,67.4
2017-07-05T04:49:30.187Z,67.4
2017-07-05T04:50:31.861Z,67.3
2017-07-05T04:51:33.514Z,67.2
2017-07-05T04:52:35.178Z,67.1
2017-07-05T04:53:36.839Z,67.5
2017-07-05T04:54:38.486Z,67.5
2017-07-05T04:55:40.215Z,67.2
2017-07-05T04:56:41.851Z,67.8
2017-07-05T04:57:43.558Z,67.8
2017-07-05T04:58:45.188Z,68.9
2017-07-05T04:59:46.778Z,69.7
2017-07-05T05:00:48.414Z,68.9
2017-07-05T05:01:50.048Z,68.7
2017-07-05T05:02:51.713Z,67.8
2017-07-05T05:03:53.385Z,67.4
2017-07-05T05:04:55.039Z,66.8
2017-07-05T05:05:56.757Z,66.8
2017-07-05T05:06:58.415Z,66.1
2017-07-05T05:08:00.072Z,66.0
2017-07-05T05:09:01.751Z,66.1
2017-07-05T05:10:03.366Z,66.1
2017-07-05T05:11:05.028Z,66.0
2017-07-05T05:12:06.684Z,66.1
2017-07-05T05:13:08.322Z,66.2
2017-07-05T05:14:09.973Z,66.7
2017-07-05T05:15:11.690Z,66.4
2017-07-05T05:16:13.327Z,66.1
2017-07-05T05:17:14.967Z,65.7
2017-07-05T05:18:16.617Z,65.2
2017-07-05T05:19:18.269Z,65.3
2017-07-05T05:20:20.050Z,65.4
2017-07-05T05:21:21.687Z,65.5
2017-07-05T05:22:23.330Z,65.6
2017-07-05T05:23:24.990Z,65.1
2017-07-05T05:24:26.627Z,65.0
2017-07-05T05:25:28.297Z,65.3
2017-07-05T05:26:29.925Z,65.2
2017-07-05T05:27:31.574Z,65.0
2017-07-05T05:28:33.207Z,65.2
2017-07-05T05:29:34.878Z,64.7
2017-07-05T05:30:36.567Z,65.1
2017-07-05T05:31:38.198Z,65.1
2017-07-05T05:32:39.908Z,64.3
2017-07-05T05:33:41.643Z,64.1
2017-07-05T05:34:43.278Z,63.6
2017-07-05T05:35:45.117Z,63.8
2017-07-05T05:36:46.917Z,63.6
2017-07-05T05:37:48.543Z,63.1
2017-07-05T05:38:50.213Z,63.5
2017-07-05T05:39:51.856Z,63.3
2017-07-05T05:40:53.499Z,63.1
2017-07-05T05:41:55.128Z,63.3
2017-07-05T05:42:56.779Z,63.2
2017-07-05T05:43:58.453Z,63.1
2017-07-05T05:45:00.093Z,63.2
2017-07-05T05:46:01.763Z,63.1
2017-07-05T05:47:03.404Z,62.5
2017-07-05T05:48:05.053Z,62.7
2017-07-05T05:49:06.697Z,63.4
2017-07-05T05:50:08.357Z,62.4
2017-07-05T05:51:10.002Z,62.7
2017-07-05T05:52:11.661Z,62.7
2017-07-05T05:53:13.300Z,63.4
2017-07-05T05:54:14.932Z,63.3
2017-07-05T05:55:16.581Z,63.8
2017-07-05T05:56:18.217Z,63.1
2017-07-05T05:57:19.879Z,63.3
2017-07-05T05:58:21.518Z,63.0
2017-07-05T05:59:23.163Z,63.5
2017-07-05T06:00:24.878Z,63.1
2017-07-05T06:01:26.458Z,62.7
2017-07-05T06:02:28.113Z,62.1
2017-07-05T06:03:29.754Z,62.0
2017-07-05T06:04:31.390Z,62.2
2017-07-05T06:05:33.057Z,62.6
2017-07-05T06:06:34.693Z,62.7
2017-07-05T06:07:36.326Z,62.5
2017-07-05T06:08:37.965Z,62.2
2017-07-05T06:09:39.591Z,62.6
2017-07-05T06:10:41.233Z,63.2
2017-07-05T06:11:42.871Z,63.1
2017-07-05T06:12:44.501Z,62.8
2017-07-05T06:13:46.142Z,62.4
2017-07-05T06:14:47.775Z,62.2
2017-07-05T06:15:49.425Z,62.4
2017-07-05T06:16:51.073Z,62.3
2017-07-05T06:17:52.725Z,62.0
2017-07-05T06:18:54.365Z,61.7
2017-07-05T06:19:56.036Z,61.1
2017-07-05T06:20:57.663Z,60.9
2017-07-05T06:21:59.313Z,60.9
2017-07-05T06:23:00.959Z,61.0
2017-07-05T06:24:02.598Z,61.1
2017-07-05T06:25:04.228Z,61.4
2017-07-05T06:26:05.862Z,62.3
2017-07-05T06:27:07.486Z,61.6
2017-07-05T06:28:09.131Z,61.7
2017-07-05T06:29:10.767Z,61.8
2017-07-05T06:30:12.403Z,61.3
2017-07-05T06:31:14.041Z,61.0
2017-07-05T06:32:15.672Z,60.7
2017-07-05T06:33:17.321Z,60.9
2017-07-05T06:34:18.955Z,60.8
2017-07-05T06:35:20.603Z,61.1
2017-07-05T06:36:22.234Z,60.2
2017-07-05T06:37:23.869Z,59.8
2017-07-05T06:38:25.510Z,60.5
2017-07-05T06:39:27.137Z,60.1
2017-07-05T06:40:28.777Z,60.2
2017-07-05T06:41:30.414Z,60.4
2017-07-05T06:42:32.058Z,60.0
2017-07-05T06:43:33.700Z,60.5
2017-07-05T06:44:35.378Z,61.0
2017-07-05T06:45:37.018Z,60.6
2017-07-05T06:46:38.710Z,60.2
2017-07-05T06:47:40.383Z,59.9
2017-07-05T06:48:42.011Z,60.3
2017-07-05T06:49:43.653Z,59.9
2017-07-05T06:50:45.294Z,59.8
2017-07-05T06:51:46.925Z,59.7
2017-07-05T06:52:48.585Z,60.4
2017-07-05T06:53:50.210Z,60.9
2017-07-05T06:54:51.853Z,60.4
2017-07-05T06:55:53.486Z,59.7
2017-07-05T06:56:55.130Z,60.3
2017-07-05T06:57:56.803Z,59.8
2017-07-05T06:58:58.472Z,60.2
2017-07-05T07:00:00.110Z,60.1
2017-07-05T07:01:01.750Z,59.7
2017-07-05T07:02:03.376Z,59.9
2017-07-05T07:03:05.024Z,59.9
2017-07-05T07:04:06.662Z,59.6
2017-07-05T07:05:08.293Z,59.9
2017-07-05T07:06:09.937Z,59.8
2017-07-05T07:07:11.611Z,59.9
2017-07-05T07:08:13.245Z,60.1
2017-07-05T07:09:14.876Z,59.8
2017-07-05T07:10:17.008Z,59.7
2017-07-05T07:11:18.641Z,59.9
2017-07-05T07:12:20.270Z,60.4
2017-07-05T07:13:21.946Z,59.5
2017-07-05T07:14:23.588Z,60.1
2017-07-05T07:15:25.220Z,60.0
2017-07-05T07:16:26.857Z,59.7
2017-07-05T07:17:28.501Z,59.9
2017-07-05T07:18:30.153Z,59.9
2017-07-05T07:19:31.783Z,59.5
2017-07-05T07:20:33.424Z,59.8
2017-07-05T07:21:35.060Z,59.8
2017-07-05T07:22:36.695Z,59.9
2017-07-05T07:23:38.444Z,60.0
2017-07-05T07:24:40.537Z,59.3
2017-07-05T07:25:42.313Z,59.6
2017-07-05T07:26:43.949Z,59.5
2017-07-05T07:27:45.584Z,59.2
2017-07-05T07:28:47.322Z,59.0
2017-07-05T07:29:48.955Z,59.7
2017-07-05T07:30:50.595Z,59.0
2017-07-05T07:31:52.234Z,59.3
2017-07-05T07:32:53.880Z,59.2
2017-07-05T07:33:55.522Z,59.0
2017-07-05T07:34:57.197Z,59.4
2017-07-05T07:35:59.059Z,59.6
2017-07-05T07:37:00.688Z,59.0
2017-07-05T07:38:02.322Z,59.4
2017-07-05T07:39:03.996Z,59.6
2017-07-05T07:40:05.636Z,59.4
2017-07-05T07:41:07.311Z,59.6
2017-07-05T07:42:08.952Z,59.1
2017-07-05T07:43:10.623Z,59.4
2017-07-05T07:44:12.280Z,59.4
2017-07-05T07:45:13.913Z,59.3
2017-07-05T07:46:15.570Z,59.3
2017-07-05T07:47:17.187Z,59.2
2017-07-05T07:48:18.828Z,59.4
2017-07-05T07:49:20.455Z,59.8
2017-07-05T07:50:22.099Z,59.6
2017-07-05T07:51:23.732Z,58.9
2017-07-05T07:52:25.380Z,59.2
2017-07-05T07:53:27.020Z,59.3
2017-07-05T07:54:28.670Z,59.4
2017-07-05T07:55:30.322Z,59.4
2017-07-05T07:56:31.967Z,59.2
2017-07-05T07:57:33.612Z,59.3
2017-07-05T07:58:35.254Z,59.2
2017-07-05T07:59:37.210Z,59.1
2017-07-05T08:00:38.808Z,59.0
2017-07-05T08:01:40.451Z,58.5
2017-07-05T08:02:42.136Z,58.1
2017-07-05T08:03:44.373Z,58.5
2017-07-05T08:04:46.034Z,58.1
2017-07-05T08:05:47.687Z,57.8
2017-07-05T08:06:49.310Z,57.7
2017-07-05T08:07:50.978Z,57.8
2017-07-05T08:08:52.618Z,58.0
2017-07-05T08:09:54.255Z,57.9
2017-07-05T08:10:56.482Z,57.8
2017-07-05T08:11:58.126Z,57.9
2017-07-05T08:12:59.782Z,58.0
2017-07-05T08:14:01.419Z,58.2
2017-07-05T08:15:03.135Z,58.1
2017-07-05T08:16:04.757Z,58.3
2017-07-05T08:17:06.396Z,58.2
2017-07-05T08:18:08.038Z,58.5
2017-07-05T08:19:09.682Z,58.4
2017-07-05T08:20:11.344Z,58.1
2017-07-05T08:21:12.978Z,58.0
2017-07-05T08:22:14.606Z,58.0
2017-07-05T08:23:16.243Z,58.0
2017-07-05T08:24:17.886Z,57.7
2017-07-05T08:25:19.520Z,58.0
2017-07-05T08:26:21.350Z,57.5
2017-07-05T08:27:22.992Z,57.5
2017-07-05T08:28:24.634Z,57.9
2017-07-05T08:29:26.264Z,58.0
2017-07-05T08:30:27.987Z,58.4
2017-07-05T08:31:29.633Z,58.0
2017-07-05T08:32:31.276Z,57.6
2017-07-05T08:33:32.928Z,57.8
2017-07-05T08:34:34.564Z,57.5
2017-07-05T08:35:36.198Z,57.3
2017-07-05T08:36:37.865Z,58.0
2017-07-05T08:37:39.504Z,57.3
2017-07-05T08:38:41.145Z,57.8
2017-07-05T08:39:42.780Z,58.2
2017-07-05T08:40:44.421Z,57.9
2017-07-05T08:41:46.063Z,57.5
2017-07-05T08:42:47.700Z,57.6
2017-07-05T08:43:49.938Z,57.3
2017-07-05T08:44:51.547Z,58.2
2017-07-05T08:45:53.194Z,57.5
2017-07-05T08:46:54.864Z,57.4
2017-07-05T08:47:56.493Z,57.3
2017-07-05T08:48:58.122Z,57.4
2017-07-05T08:49:59.781Z,57.5
2017-07-05T08:51:01.416Z,57.2
2017-07-05T08:52:03.094Z,57.5
2017-07-05T08:53:05.052Z,56.4
2017-07-05T08:54:06.678Z,56.5
2017-07-05T08:55:08.327Z,56.3
2017-07-05T08:56:10.913Z,56.7
2017-07-05T08:57:12.594Z,56.4
2017-07-05T08:58:14.235Z,56.6
2017-07-05T08:59:15.931Z,56.6
2017-07-05T09:00:17.661Z,57.3
2017-07-05T09:01:19.376Z,56.4
2017-07-05T09:02:21.135Z,56.8
2017-07-05T09:03:22.778Z,56.6
2017-07-05T09:04:24.420Z,56.2
2017-07-05T09:05:26.059Z,56.5
2017-07-05T09:06:28.139Z,56.4
2017-07-05T09:07:29.890Z,56.4
2017-07-05T09:08:31.462Z,56.3
2017-07-05T09:09:33.149Z,56.4
2017-07-05T09:10:34.804Z,57.4
2017-07-05T09:11:36.446Z,56.9
2017-07-05T09:12:38.191Z,56.6
2017-07-05T09:13:39.834Z,56.5
2017-07-05T09:14:41.477Z,56.6
2017-07-05T09:15:43.329Z,56.1
2017-07-05T09:16:44.979Z,55.6
2017-07-05T09:17:46.637Z,55.4
2017-07-05T09:18:48.273Z,55.7
2017-07-05T09:19:49.965Z,55.5
2017-07-05T09:20:51.658Z,55.5
2017-07-05T09:21:53.302Z,55.1
2017-07-05T09:22:54.957Z,55.0
2017-07-05T09:23:58.041Z,54.9
2017-07-05T09:24:59.987Z,54.5
2017-07-05T09:26:01.804Z,54.8
2017-07-05T09:27:03.539Z,54.8
2017-07-05T09:28:05.378Z,54.8
2017-07-05T09:29:07.073Z,54.8
2017-07-05T09:30:08.722Z,54.8
2017-07-05T09:31:10.623Z,54.1
2017-07-05T09:32:12.989Z,54.5
2017-07-05T09:33:14.812Z,54.3
2017-07-05T09:34:17.486Z,54.1
2017-07-05T09:35:19.162Z,53.8
2017-07-05T09:36:20.844Z,53.4
2017-07-05T09:37:22.708Z,53.1
2017-07-05T09:38:24.453Z,52.9
2017-07-05T09:39:26.150Z,53.2
2017-07-05T09:40:27.922Z,53.5
2017-07-05T09:41:29.619Z,54.4
2017-07-05T09:42:31.379Z,54.1
2017-07-05T09:43:33.335Z,54.0
2017-07-05T09:44:35.071Z,53.4
2017-07-05T09:45:37.170Z,53.5
2017-07-05T09:46:39.928Z,53.3
2017-07-05T09:47:41.852Z,53.7
2017-07-05T09:48:43.638Z,53.8
2017-07-05T09:49:45.541Z,54.1
2017-07-05T09:50:47.236Z,53.7
2017-07-05T09:51:48.943Z,54.1
2017-07-05T09:52:50.738Z,54.1
2017-07-05T09:53:52.387Z,54.0
2017-07-05T09:54:54.102Z,54.0
2017-07-05T09:55:55.800Z,53.8
2017-07-05T09:56:57.654Z,54.2
2017-07-05T09:57:59.363Z,53.6
2017-07-05T09:59:01.175Z,53.6
2017-07-05T10:00:02.835Z,53.4
2017-07-05T10:01:04.614Z,53.5
2017-07-05T10:02:06.407Z,53.1
2017-07-05T10:03:08.106Z,52.9
2017-07-05T10:04:09.797Z,52.2
2017-07-05T10:05:11.477Z,52.3
2017-07-05T10:06:13.156Z,52.4
2017-07-05T10:07:14.845Z,52.5
2017-07-05T10:08:16.544Z,51.8
2017-07-05T10:09:18.199Z,50.8
2017-07-05T10:10:20.448Z,50.7
2017-07-05T10:11:22.125Z,50.8
2017-07-05T10:12:23.824Z,51.0
2017-07-05T10:13:25.429Z,50.0
2017-07-05T10:14:27.080Z,49.7
2017-07-05T10:15:28.733Z,49.7
2017-07-05T10:16:30.411Z,50.2
2017-07-05T10:17:32.095Z,50.1
2017-07-05T10:18:33.750Z,50.1
2017-07-05T10:19:35.422Z,50.1
2017-07-05T10:20:37.089Z,50.1
2017-07-05T10:21:38.753Z,50.1
2017-07-05T10:22:40.461Z,49.9
2017-07-05T10:23:42.203Z,50.2
2017-07-05T10:24:43.928Z,50.2
2017-07-05T10:25:45.600Z,50.0
2017-07-05T10:26:47.304Z,49.6
2017-07-05T10:27:49.079Z,49.0
2017-07-05T10:28:53.788Z,49.3
2017-07-05T10:29:55.471Z,48.3
2017-07-05T10:31:00.120Z,48.5
2017-07-05T10:32:02.039Z,47.9
2017-07-05T10:33:03.626Z,48.3
2017-07-05T10:34:05.321Z,48.0
2017-07-05T10:35:06.998Z,48.4
2017-07-05T10:36:08.654Z,48.2
2017-07-05T10:37:10.301Z,48.0
2017-07-05T10:38:11.946Z,47.9
2017-07-05T10:39:13.610Z,47.9
2017-07-05T10:40:15.350Z,47.8
2017-07-05T10:41:17.030Z,47.2
2017-07-05T10:42:18.701Z,47.9
2017-07-05T10:43:20.352Z,48.0
2017-07-05T10:44:21.997Z,47.7
2017-07-05T10:45:23.657Z,47.8
2017-07-05T10:46:25.304Z,47.5
2017-07-05T10:47:26.944Z,47.8
2017-07-05T10:48:28.597Z,47.9
2017-07-05T10:49:30.243Z,47.2
2017-07-05T10:50:31.886Z,47.0
2017-07-05T10:51:33.544Z,47.4
2017-07-05T10:52:35.193Z,47.4
2017-07-05T10:53:36.837Z,47.2
2017-07-05T10:54:38.468Z,46.9
2017-07-05T10:55:40.137Z,46.8
2017-07-05T10:56:41.769Z,46.5
2017-07-05T10:57:43.434Z,46.7
2017-07-05T10:58:45.111Z,46.6
2017-07-05T10:59:46.758Z,46.3
2017-07-05T11:00:48.398Z,47.4
2017-07-05T11:01:50.043Z,47.3
2017-07-05T11:02:51.794Z,47.2
2017-07-05T11:03:53.447Z,47.3
2017-07-05T11:04:55.079Z,46.6
2017-07-05T11:05:56.743Z,46.7
2017-07-05T11:06:58.367Z,46.4
2017-07-05T11:08:00.018Z,46.5
2017-07-05T11:09:01.659Z,46.3
2017-07-05T11:10:03.306Z,46.4
2017-07-05T11:11:04.993Z,46.4
2017-07-05T11:12:06.592Z,46.6
2017-07-05T11:13:08.244Z,46.4
2017-07-05T11:14:09.886Z,47.0
2017-07-05T11:15:11.528Z,47.4
2017-07-05T11:16:13.171Z,46.8
2017-07-05T11:17:14.823Z,46.7
2017-07-05T11:18:16.462Z,46.2
2017-07-05T11:19:18.106Z,46.4
2017-07-05T11:20:19.760Z,46.5
2017-07-05T11:21:21.400Z,46.5
2017-07-05T11:22:23.060Z,46.7
2017-07-05T11:23:24.803Z,46.4
2017-07-05T11:24:26.510Z,46.2
2017-07-05T11:25:28.163Z,46.2
2017-07-05T11:26:29.805Z,46.4
2017-07-05T11:27:31.472Z,46.4
2017-07-05T11:28:33.107Z,45.9
2017-07-05T11:29:34.745Z,46.1
2017-07-05T11:30:36.386Z,44.9
2017-07-05T11:31:38.031Z,44.9
2017-07-05T11:32:39.680Z,45.1
2017-07-05T11:33:41.340Z,45.2
2017-07-05T11:34:42.988Z,44.6
2017-07-05T11:35:44.632Z,44.5
2017-07-05T11:36:46.279Z,45.0
2017-07-05T11:37:48.029Z,44.7
2017-07-05T11:38:49.671Z,44.6
2017-07-05T11:39:51.322Z,44.6
2017-07-05T11:40:52.972Z,44.0
2017-07-05T11:41:54.624Z,44.1
2017-07-05T11:42:56.268Z,45.1
2017-07-05T11:43:57.915Z,44.6
2017-07-05T11:44:59.556Z,45.2
2017-07-05T11:46:01.201Z,44.5
2017-07-05T11:47:02.849Z,43.5
2017-07-05T11:48:04.503Z,44.0
2017-07-05T11:49:06.152Z,44.5
2017-07-05T11:50:07.803Z,44.1
2017-07-05T11:51:09.502Z,44.0
2017-07-05T11:52:11.147Z,43.5
2017-07-05T11:53:13.502Z,43.0
2017-07-05T11:54:15.199Z,42.8
2017-07-05T11:55:16.792Z,43.0
2017-07-05T11:56:18.448Z,43.9
2017-07-05T11:57:20.109Z,43.8
2017-07-05T11:58:21.790Z,44.4
2017-07-05T11:59:23.443Z,44.2
2017-07-05T12:00:25.095Z,44.1
2017-07-05T12:01:26.792Z,44.0
2017-07-05T12:02:28.455Z,43.8
2017-07-05T12:03:30.107Z,43.0
2017-07-05T12:04:31.780Z,42.8
2017-07-05T12:05:33.425Z,42.8
2017-07-05T12:06:35.082Z,42.9
2017-07-05T12:07:36.757Z,44.0
2017-07-05T12:08:38.372Z,43.7
2017-07-05T12:09:40.016Z,43.3
2017-07-05T12:10:41.690Z,44.0
2017-07-05T12:11:44.005Z,43.9
2017-07-05T12:12:45.657Z,44.6
2017-07-05T12:13:47.325Z,44.7
2017-07-05T12:14:49.040Z,44.5
2017-07-05T12:15:50.765Z,44.7
2017-07-05T12:16:52.523Z,44.8
2017-07-05T12:17:54.174Z,44.7
2017-07-05T12:18:55.817Z,44.9
2017-07-05T12:19:57.466Z,44.8
2017-07-05T12:20:59.107Z,44.8
2017-07-05T12:22:00.753Z,44.9
2017-07-05T12:23:02.410Z,44.9
2017-07-05T12:24:04.061Z,45.1
2017-07-05T12:25:05.695Z,44.6
2017-07-05T12:26:08.241Z,44.0
2017-07-05T12:27:10.313Z,43.8
2017-07-05T12:28:13.115Z,43.1
2017-07-05T12:29:14.822Z,42.2
2017-07-05T12:30:16.482Z,41.4
2017-07-05T12:31:18.149Z,42.2
2017-07-05T12:32:19.806Z,40.9
2017-07-05T12:33:21.467Z,40.4
2017-07-05T12:34:23.137Z,40.3
2017-07-05T12:35:24.767Z,40.2
2017-07-05T12:36:26.411Z,40.2
2017-07-05T12:37:28.059Z,40.2
2017-07-05T12:38:29.704Z,39.8
2017-07-05T12:39:31.368Z,39.7
2017-07-05T12:40:33.018Z,38.7
2017-07-05T12:41:34.681Z,38.7
2017-07-05T12:42:36.334Z,39.3
2017-07-05T12:43:37.986Z,39.3
2017-07-05T12:44:39.630Z,39.8
2017-07-05T12:45:41.278Z,39.7
2017-07-05T12:46:42.942Z,39.8
2017-07-05T12:47:44.633Z,39.2
2017-07-05T12:48:46.298Z,39.3
2017-07-05T12:49:47.976Z,39.6
2017-07-05T12:50:49.590Z,39.5
2017-07-05T12:51:51.241Z,39.8
2017-07-05T12:52:52.918Z,39.7
2017-07-05T12:53:54.568Z,39.3
2017-07-05T12:54:56.225Z,39.0
2017-07-05T12:55:57.881Z,38.7
2017-07-05T12:56:59.528Z,38.8
2017-07-05T12:58:01.206Z,38.6
2017-07-05T12:59:02.878Z,38.4
2017-07-05T13:00:04.591Z,37.5
2017-07-05T13:01:06.267Z,36.4
2017-07-05T13:02:07.937Z,35.6
2017-07-05T13:03:09.587Z,35.7
2017-07-05T13:04:11.239Z,35.1
2017-07-05T13:05:12.893Z,35.1
2017-07-05T13:06:14.566Z,34.4
2017-07-05T13:07:16.208Z,33.2
2017-07-05T13:08:17.868Z,32.5
2017-07-05T13:09:19.509Z,32.0
2017-07-05T13:10:21.156Z,31.6
2017-07-05T13:11:22.806Z,30.9
2017-07-05T13:12:24.493Z,29.9
2017-07-05T13:13:26.163Z,30.5
2017-07-05T13:14:27.851Z,31.1
2017-07-05T13:15:29.512Z,30.3
2017-07-05T13:16:32.038Z,31.1
2017-07-05T13:17:33.687Z,31.9
2017-07-05T13:18:35.335Z,31.6
2017-07-05T13:19:36.992Z,30.3
2017-07-05T13:20:38.639Z,29.7
2017-07-05T13:21:40.308Z,29.3
2017-07-05T13:22:41.952Z,29.1
2017-07-05T13:23:43.618Z,27.9
2017-07-05T13:24:45.274Z,27.4
2017-07-05T13:25:47.039Z,27.1
2017-07-05T13:26:49.564Z,26.8
2017-07-05T13:27:51.222Z,27.8
2017-07-05T13:28:52.893Z,28.1
2017-07-05T13:29:54.540Z,27.3
2017-07-05T13:30:56.214Z,26.2
2017-07-05T13:31:57.861Z,26.1
2017-07-05T13:32:59.561Z,27.4
2017-07-05T13:34:01.246Z,27.8
2017-07-05T13:35:02.888Z,26.9
2017-07-05T13:36:04.555Z,27.3
2017-07-05T13:37:06.207Z,27.2
2017-07-05T13:38:07.857Z,27.8
2017-07-05T13:39:09.527Z,27.8
2017-07-05T13:40:11.202Z,28.1
2017-07-05T13:41:12.875Z,27.8